Time;durP1;ratioP1;P1;durP2;ratioP2;P2;SDS_P1;SDS_P2;PMS_P1;PMS_P2;Temp;Humidity;BMP_temperature;BMP_pressure;BME280_temperature;BME280_humidity;BME280_pressure;Samples;Min_cycle;Max_cycle;Signal;HPM_P1;HPM_P2
2021/08/08 00:02:13;;;;;;;8.80;3.85;;;;;;;;;;5123140;27;20030;-71
2021/08/08 00:04:38;;;;;;;6.10;3.63;;;;;;;;;;5116135;27;20126;-71
2021/08/08 00:07:04;;;;;;;8.65;4.97;;;;;;;;;;5131989;27;20510;-71
2021/08/08 00:09:30;;;;;;;9.70;5.55;;;;;;;;;;5120620;27;20099;-71
2021/08/08 00:11:55;;;;;;;11.20;6.25;;;;;;;;;;5114618;27;20038;-71
2021/08/08 00:14:21;;;;;;;16.63;8.38;;;;;;;;;;5131779;27;20031;-71
2021/08/08 00:16:47;;;;;;;14.98;8.43;;;;;;;;;;5115245;27;20046;-71
2021/08/08 00:19:13;;;;;;;21.08;10.95;;;;;;;;;;5114129;27;20023;-71
2021/08/08 00:21:39;;;;;;;19.33;11.27;;;;;;;;;;5133469;27;20034;-71
2021/08/08 00:24:05;;;;;;;22.77;12.13;;;;;;;;;;5130769;27;20022;-71
2021/08/08 00:26:30;;;;;;;22.38;12.73;;;;;;;;;;5132888;27;20140;-71
2021/08/08 00:28:56;;;;;;;25.00;13.52;;;;;;;;;;5131698;27;20026;-71
2021/08/08 00:31:24;;;;;;;21.85;11.88;;;;;;;;;;5122804;27;20090;-71
2021/08/08 00:33:51;;;;;;;22.58;12.43;;;;;;;;;;5114824;27;20027;-71
2021/08/08 00:36:17;;;;;;;19.58;12.18;;;;;;;;;;5113075;28;20020;-71
2021/08/08 00:38:43;;;;;;;27.02;13.55;;;;;;;;;;5130507;27;20685;-71
2021/08/08 00:41:08;;;;;;;25.75;13.45;;;;;;;;;;5123910;27;20095;-71
2021/08/08 00:43:34;;;;;;;29.33;14.23;;;;;;;;;;5117801;27;20021;-71
2021/08/08 00:46:00;;;;;;;25.02;13.18;;;;;;;;;;5121819;27;20035;-71
2021/08/08 00:48:25;;;;;;;26.42;13.77;;;;;;;;;;5132695;27;20055;-71
2021/08/08 00:50:51;;;;;;;25.77;13.52;;;;;;;;;;5125264;27;20025;-71
2021/08/08 00:53:17;;;;;;;25.27;14.75;;;;;;;;;;5131163;27;20035;-71
2021/08/08 00:55:43;;;;;;;25.73;14.70;;;;;;;;;;5125731;27;20052;-72
2021/08/08 00:58:08;;;;;;;31.60;15.10;;;;;;;;;;5112674;28;20058;-72
2021/08/08 01:00:36;;;;;;;30.10;15.43;;;;;;;;;;5119333;27;20035;-71
2021/08/08 01:03:05;;;;;;;27.13;13.95;;;;;;;;;;5132017;27;20462;-71
2021/08/08 01:05:36;;;;;;;35.60;15.07;;;;;;;;;;5132834;27;20522;-71
2021/08/08 01:08:05;;;;;;;28.00;13.88;;;;;;;;;;5126719;27;20103;-71
2021/08/08 01:10:33;;;;;;;30.15;14.90;;;;;;;;;;5125452;27;20051;-71
2021/08/08 01:13:00;;;;;;;31.42;14.85;;;;;;;;;;5117587;27;20040;-71
2021/08/08 01:15:26;;;;;;;25.08;14.50;;;;;;;;;;5127215;27;20523;-71
2021/08/08 01:17:52;;;;;;;29.85;14.77;;;;;;;;;;5132344;27;20030;-71
2021/08/08 01:20:19;;;;;;;25.88;13.80;;;;;;;;;;5112359;28;20106;-71
2021/08/08 01:22:53;;;;;;;25.00;14.02;;;;;;;;;;5112688;28;20136;-72
2021/08/08 01:25:21;;;;;;;21.10;13.48;;;;;;;;;;5121806;27;20030;-71
2021/08/08 01:27:46;;;;;;;19.95;12.85;;;;;;;;;;5127935;27;20102;-71
2021/08/08 01:30:12;;;;;;;23.48;13.10;;;;;;;;;;5127834;27;20449;-71
2021/08/08 01:32:38;;;;;;;24.63;13.40;;;;;;;;;;5099506;28;20039;-71
2021/08/08 01:35:04;;;;;;;30.23;13.52;;;;;;;;;;5134961;27;20130;-71
2021/08/08 01:37:31;;;;;;;23.92;13.35;;;;;;;;;;5132380;27;20030;-71
2021/08/08 01:40:11;;;;;;;25.75;13.75;;;;;;;;;;5124068;27;20031;-71
2021/08/08 01:42:38;;;;;;;26.90;13.48;;;;;;;;;;5120205;27;20027;-71
2021/08/08 01:45:06;;;;;;;27.77;13.18;;;;;;;;;;5130492;27;20110;-71
2021/08/08 01:47:36;;;;;;;30.45;16.58;;;;;;;;;;5134896;27;20042;-71
2021/08/08 01:50:03;;;;;;;28.48;13.80;;;;;;;;;;5123741;27;20048;-71
2021/08/08 01:52:28;;;;;;;26.58;13.68;;;;;;;;;;5117488;27;20032;-71
2021/08/08 01:54:55;;;;;;;25.33;14.18;;;;;;;;;;5117965;27;20027;-70
2021/08/08 01:57:21;;;;;;;29.00;13.13;;;;;;;;;;5116191;28;20068;-70
2021/08/08 01:59:46;;;;;;;25.33;12.43;;;;;;;;;;5117361;27;20080;-70
2021/08/08 02:02:14;;;;;;;25.45;13.20;;;;;;;;;;5136549;27;20468;-71
2021/08/08 02:04:40;;;;;;;26.15;13.18;;;;;;;;;;5132992;27;20478;-70
2021/08/08 02:07:09;;;;;;;22.77;12.95;;;;;;;;;;5136487;27;20403;-70
2021/08/08 02:09:35;;;;;;;22.15;11.73;;;;;;;;;;5132706;27;20023;-70
2021/08/08 02:12:00;;;;;;;25.02;13.07;;;;;;;;;;5117106;27;20019;-70
2021/08/08 02:14:26;;;;;;;23.65;11.98;;;;;;;;;;5116650;27;20035;-70
2021/08/08 02:16:53;;;;;;;21.83;11.93;;;;;;;;;;5129476;27;20043;-70
2021/08/08 02:19:18;;;;;;;21.35;11.57;;;;;;;;;;5115698;27;20024;-70
2021/08/08 02:21:45;;;;;;;23.15;12.82;;;;;;;;;;5115385;28;20020;-70
2021/08/08 02:24:11;;;;;;;20.67;12.93;;;;;;;;;;5123152;27;20046;-70
2021/08/08 02:26:37;;;;;;;20.20;12.27;;;;;;;;;;5121268;27;20576;-71
2021/08/08 02:29:03;;;;;;;24.63;12.27;;;;;;;;;;5115644;28;20344;-71
2021/08/08 02:31:40;;;;;;;20.60;12.23;;;;;;;;;;5115415;27;20031;-70
2021/08/08 02:34:06;;;;;;;27.88;12.77;;;;;;;;;;5125779;27;20072;-70
2021/08/08 02:36:32;;;;;;;23.52;11.88;;;;;;;;;;5120639;27;20024;-70
2021/08/08 02:38:58;;;;;;;19.60;11.80;;;;;;;;;;5135413;27;20033;-70
2021/08/08 02:41:23;;;;;;;19.15;11.90;;;;;;;;;;5133030;27;20035;-70
2021/08/08 02:43:49;;;;;;;18.08;11.43;;;;;;;;;;5132049;27;20106;-70
2021/08/08 02:46:14;;;;;;;16.63;11.30;;;;;;;;;;5130376;27;20016;-70
2021/08/08 02:48:39;;;;;;;12.95;9.55;;;;;;;;;;5126612;27;20039;-70
2021/08/08 02:51:05;;;;;;;16.63;10.65;;;;;;;;;;5115055;27;20023;-70
2021/08/08 02:53:30;;;;;;;15.77;10.35;;;;;;;;;;5122018;27;20405;-70
2021/08/08 02:55:56;;;;;;;14.43;10.10;;;;;;;;;;5130309;27;20034;-70
2021/08/08 02:58:22;;;;;;;19.23;12.05;;;;;;;;;;5135249;27;20063;-70
2021/08/08 03:00:48;;;;;;;20.42;11.20;;;;;;;;;;5131063;27;20103;-70
2021/08/08 03:03:14;;;;;;;15.68;11.20;;;;;;;;;;5131332;27;20110;-70
2021/08/08 03:05:40;;;;;;;17.42;10.98;;;;;;;;;;5132329;27;20027;-70
2021/08/08 03:08:05;;;;;;;20.77;11.20;;;;;;;;;;5134936;27;20027;-70
2021/08/08 03:10:31;;;;;;;17.58;10.20;;;;;;;;;;5123683;27;20383;-70
2021/08/08 03:12:56;;;;;;;18.20;10.98;;;;;;;;;;5117991;27;20027;-70
2021/08/08 03:15:22;;;;;;;14.82;9.93;;;;;;;;;;5126290;27;20020;-70
2021/08/08 03:17:47;;;;;;;17.00;10.45;;;;;;;;;;5132762;27;20027;-70
2021/08/08 03:20:13;;;;;;;15.07;10.68;;;;;;;;;;5128374;27;20023;-70
2021/08/08 03:22:39;;;;;;;14.00;11.00;;;;;;;;;;5132312;27;20039;-70
2021/08/08 03:25:06;;;;;;;16.10;11.68;;;;;;;;;;5114836;27;20447;-70
2021/08/08 03:27:32;;;;;;;24.35;13.65;;;;;;;;;;5131646;27;20088;-70
2021/08/08 03:29:58;;;;;;;16.85;11.77;;;;;;;;;;5119522;27;20027;-70
2021/08/08 03:32:23;;;;;;;17.85;11.18;;;;;;;;;;5130329;27;20032;-70
2021/08/08 03:34:49;;;;;;;19.13;11.70;;;;;;;;;;5114061;27;20106;-70
2021/08/08 03:37:14;;;;;;;18.35;13.27;;;;;;;;;;5117010;27;20515;-70
2021/08/08 03:39:40;;;;;;;20.13;10.80;;;;;;;;;;5134362;27;20102;-70
2021/08/08 03:42:06;;;;;;;20.58;11.27;;;;;;;;;;5120821;27;20062;-70
2021/08/08 03:44:32;;;;;;;18.15;10.25;;;;;;;;;;5114494;27;20036;-70
2021/08/08 03:46:58;;;;;;;14.68;10.00;;;;;;;;;;5121435;27;20884;-70
2021/08/08 03:49:23;;;;;;;15.70;9.63;;;;;;;;;;5119926;27;20404;-70
2021/08/08 03:51:49;;;;;;;16.27;8.73;;;;;;;;;;5113346;28;20023;-70
2021/08/08 03:54:14;;;;;;;14.27;9.02;;;;;;;;;;5113281;28;20026;-70
2021/08/08 03:56:40;;;;;;;10.63;8.88;;;;;;;;;;5113124;28;20023;-70
2021/08/08 03:59:06;;;;;;;10.98;8.32;;;;;;;;;;5112469;28;20152;-70
2021/08/08 04:01:31;;;;;;;13.10;9.30;;;;;;;;;;5116289;27;20375;-70
2021/08/08 04:03:57;;;;;;;14.05;8.68;;;;;;;;;;5112773;28;20027;-70
2021/08/08 04:06:22;;;;;;;13.23;8.55;;;;;;;;;;5113141;28;20613;-70
2021/08/08 04:08:48;;;;;;;9.27;7.50;;;;;;;;;;5113343;28;20077;-70
2021/08/08 04:11:14;;;;;;;13.05;8.55;;;;;;;;;;5112771;28;20076;-70
2021/08/08 04:13:40;;;;;;;9.65;8.60;;;;;;;;;;5112804;28;20028;-70
2021/08/08 04:16:06;;;;;;;13.20;9.77;;;;;;;;;;5112688;28;20038;-70
2021/08/08 04:18:32;;;;;;;15.23;9.35;;;;;;;;;;5112650;28;20055;-71
2021/08/08 04:20:57;;;;;;;13.52;10.27;;;;;;;;;;5112147;28;20035;-70
2021/08/08 04:23:23;;;;;;;16.40;10.70;;;;;;;;;;5112542;28;20031;-70
2021/08/08 04:25:48;;;;;;;14.35;11.02;;;;;;;;;;5112570;28;20093;-70
2021/08/08 04:28:14;;;;;;;17.55;11.23;;;;;;;;;;5113070;28;20447;-70
2021/08/08 04:30:39;;;;;;;23.40;11.38;;;;;;;;;;5112445;28;20024;-71
2021/08/08 04:33:05;;;;;;;17.48;12.15;;;;;;;;;;5111253;28;20028;-70
2021/08/08 04:35:32;;;;;;;16.42;11.90;;;;;;;;;;5113030;28;20020;-70
2021/08/08 04:38:00;;;;;;;19.15;11.70;;;;;;;;;;5111903;28;20053;-70
2021/08/08 04:40:26;;;;;;;26.08;15.07;;;;;;;;;;5112247;28;20452;-70
2021/08/08 04:42:51;;;;;;;19.75;12.93;;;;;;;;;;5111892;28;20085;-71
2021/08/08 04:45:19;;;;;;;22.02;13.95;;;;;;;;;;5112570;28;20035;-70
2021/08/08 04:47:45;;;;;;;18.60;13.80;;;;;;;;;;5112378;28;20102;-70
2021/08/08 04:50:10;;;;;;;16.63;12.75;;;;;;;;;;5132015;27;20083;-71
2021/08/08 04:52:37;;;;;;;18.05;12.23;;;;;;;;;;5131297;27;20027;-71
2021/08/08 04:55:03;;;;;;;15.75;12.20;;;;;;;;;;5124561;27;20027;-71
2021/08/08 04:57:29;;;;;;;14.88;12.88;;;;;;;;;;5124653;27;20080;-71
2021/08/08 04:59:54;;;;;;;14.55;11.90;;;;;;;;;;5129000;27;20043;-71
2021/08/08 05:02:20;;;;;;;13.07;11.73;;;;;;;;;;5120572;27;20516;-71
2021/08/08 05:04:46;;;;;;;18.58;12.43;;;;;;;;;;5116957;27;20098;-71
2021/08/08 05:07:12;;;;;;;21.65;12.15;;;;;;;;;;5130337;27;20563;-71
2021/08/08 05:09:38;;;;;;;14.13;11.82;;;;;;;;;;5127332;27;20055;-70
2021/08/08 05:12:03;;;;;;;17.35;12.18;;;;;;;;;;5122041;27;20023;-71
2021/08/08 05:14:29;;;;;;;17.50;11.55;;;;;;;;;;5126057;27;20038;-71
2021/08/08 05:16:55;;;;;;;17.25;11.00;;;;;;;;;;5110900;27;20557;-71
2021/08/08 05:19:21;;;;;;;16.05;11.63;;;;;;;;;;5120544;27;20055;-71
2021/08/08 05:21:47;;;;;;;12.55;11.25;;;;;;;;;;5117550;28;20046;-70
2021/08/08 05:24:12;;;;;;;15.30;11.75;;;;;;;;;;5128895;28;20062;-71
2021/08/08 05:26:38;;;;;;;12.27;10.73;;;;;;;;;;5127522;28;20446;-71
2021/08/08 05:29:03;;;;;;;17.92;11.73;;;;;;;;;;5126705;28;20024;-72
2021/08/08 05:31:29;;;;;;;11.95;10.52;;;;;;;;;;5129568;28;20023;-71
2021/08/08 05:33:55;;;;;;;13.52;10.80;;;;;;;;;;5132053;28;20355;-71
2021/08/08 05:36:20;;;;;;;16.00;10.65;;;;;;;;;;5129101;28;20032;-72
2021/08/08 05:38:46;;;;;;;16.05;10.85;;;;;;;;;;5131987;28;20471;-71
2021/08/08 05:41:12;;;;;;;16.65;10.93;;;;;;;;;;5132192;28;20080;-71
2021/08/08 05:43:38;;;;;;;12.27;10.20;;;;;;;;;;5125882;28;20027;-71
2021/08/08 05:46:04;;;;;;;13.02;9.85;;;;;;;;;;5123160;28;20420;-71
2021/08/08 05:48:29;;;;;;;10.52;9.00;;;;;;;;;;5129805;28;20047;-71
2021/08/08 05:50:55;;;;;;;11.23;9.00;;;;;;;;;;5127092;27;20035;-71
2021/08/08 05:53:20;;;;;;;13.45;10.02;;;;;;;;;;5131264;28;20083;-71
2021/08/08 05:55:46;;;;;;;15.25;10.20;;;;;;;;;;5124751;28;20028;-72
2021/08/08 05:58:14;;;;;;;12.80;9.55;;;;;;;;;;5118465;28;20023;-71
2021/08/08 06:00:42;;;;;;;10.60;8.93;;;;;;;;;;5130829;28;20550;-71
2021/08/08 06:03:09;;;;;;;10.68;8.82;;;;;;;;;;5119943;28;20394;-72
2021/08/08 06:05:35;;;;;;;11.80;8.82;;;;;;;;;;5120611;28;20016;-71
2021/08/08 06:08:01;;;;;;;11.23;8.18;;;;;;;;;;5125171;28;20427;-71
2021/08/08 06:10:27;;;;;;;10.48;8.00;;;;;;;;;;5124291;28;20016;-71
2021/08/08 06:12:53;;;;;;;12.35;8.20;;;;;;;;;;5128468;27;20042;-69
2021/08/08 06:15:18;;;;;;;9.48;8.07;;;;;;;;;;5127662;27;20059;-70
2021/08/08 06:17:44;;;;;;;12.95;8.18;;;;;;;;;;5131471;27;20031;-70
2021/08/08 06:20:09;;;;;;;10.90;8.07;;;;;;;;;;5114675;28;20455;-70
2021/08/08 06:22:35;;;;;;;10.38;7.38;;;;;;;;;;5122883;27;20458;-70
2021/08/08 06:25:00;;;;;;;12.30;8.02;;;;;;;;;;5129431;27;20034;-70
2021/08/08 06:27:26;;;;;;;8.70;7.80;;;;;;;;;;5127763;27;20027;-70
2021/08/08 06:29:52;;;;;;;10.65;7.85;;;;;;;;;;5122271;27;20030;-70
2021/08/08 06:32:17;;;;;;;9.48;7.55;;;;;;;;;;5123924;27;20031;-70
2021/08/08 06:34:43;;;;;;;11.48;7.38;;;;;;;;;;5122422;27;20072;-69
2021/08/08 06:37:09;;;;;;;10.70;7.43;;;;;;;;;;5123744;27;20024;-70
2021/08/08 06:39:35;;;;;;;10.00;6.97;;;;;;;;;;5124263;27;20026;-70
2021/08/08 06:42:01;;;;;;;9.00;7.38;;;;;;;;;;5105695;27;20475;-70
2021/08/08 06:44:28;;;;;;;10.00;7.82;;;;;;;;;;5127607;27;20026;-70
2021/08/08 06:46:54;;;;;;;10.32;7.18;;;;;;;;;;5126774;27;20046;-70
2021/08/08 06:49:20;;;;;;;11.30;7.55;;;;;;;;;;5127008;27;20043;-71
2021/08/08 06:51:52;;;;;;;9.88;7.13;;;;;;;;;;5120484;27;20027;-71
2021/08/08 06:54:22;;;;;;;8.45;6.90;;;;;;;;;;5114673;27;20024;-71
2021/08/08 06:56:49;;;;;;;11.10;7.10;;;;;;;;;;5130462;27;20031;-71
2021/08/08 06:59:15;;;;;;;10.15;7.28;;;;;;;;;;5104141;27;20428;-71
2021/08/08 07:01:45;;;;;;;11.13;6.82;;;;;;;;;;5129615;27;20644;-71
2021/08/08 07:04:11;;;;;;;8.35;7.10;;;;;;;;;;5127846;27;20118;-71
2021/08/08 07:06:36;;;;;;;9.18;6.57;;;;;;;;;;5120821;27;20106;-71
2021/08/08 07:09:02;;;;;;;8.60;6.60;;;;;;;;;;5121430;27;20072;-71
2021/08/08 07:11:29;;;;;;;7.93;6.40;;;;;;;;;;5116027;27;20037;-71
2021/08/08 07:13:56;;;;;;;8.35;6.97;;;;;;;;;;5129494;27;20027;-71
2021/08/08 07:16:21;;;;;;;9.82;6.90;;;;;;;;;;5132603;27;20034;-71
2021/08/08 07:18:47;;;;;;;12.27;7.15;;;;;;;;;;5129321;27;20383;-71
2021/08/08 07:21:12;;;;;;;8.02;6.97;;;;;;;;;;5127008;27;20034;-71
2021/08/08 07:23:39;;;;;;;9.75;7.20;;;;;;;;;;5126768;27;20042;-71
2021/08/08 07:26:04;;;;;;;8.45;6.60;;;;;;;;;;5126721;27;20057;-72
2021/08/08 07:28:30;;;;;;;10.05;7.28;;;;;;;;;;5122329;27;20023;-71
2021/08/08 07:30:56;;;;;;;12.80;7.63;;;;;;;;;;5124300;27;20027;-72
2021/08/08 07:33:21;;;;;;;9.65;6.72;;;;;;;;;;5128237;27;20027;-72
2021/08/08 07:35:48;;;;;;;10.15;7.72;;;;;;;;;;5124889;27;20038;-72
2021/08/08 07:38:14;;;;;;;11.43;6.85;;;;;;;;;;5129403;27;20023;-72
2021/08/08 07:40:40;;;;;;;10.75;7.20;;;;;;;;;;5128776;27;20027;-72
2021/08/08 07:43:05;;;;;;;9.30;6.80;;;;;;;;;;5124715;27;20026;-73
2021/08/08 07:45:31;;;;;;;8.98;6.72;;;;;;;;;;5127675;27;20025;-73
2021/08/08 07:47:56;;;;;;;9.00;7.00;;;;;;;;;;5128618;27;20020;-73
2021/08/08 07:50:22;;;;;;;9.43;7.65;;;;;;;;;;5096960;27;20047;-73
2021/08/08 07:52:47;;;;;;;11.13;7.60;;;;;;;;;;5099106;28;20033;-73
2021/08/08 07:55:13;;;;;;;11.77;7.20;;;;;;;;;;5095132;28;20436;-73
2021/08/08 07:57:39;;;;;;;9.88;7.03;;;;;;;;;;5092527;28;20174;-71
2021/08/08 08:00:07;;;;;;;13.05;6.95;;;;;;;;;;5092743;28;20052;-71
2021/08/08 08:02:33;;;;;;;9.38;6.95;;;;;;;;;;5092561;28;20019;-71
2021/08/08 08:04:58;;;;;;;11.52;7.78;;;;;;;;;;5090817;28;20418;-72
2021/08/08 08:07:24;;;;;;;12.65;7.72;;;;;;;;;;5091912;28;20490;-72
2021/08/08 08:09:50;;;;;;;7.45;5.90;;;;;;;;;;5092270;28;20020;-72
2021/08/08 08:12:15;;;;;;;9.38;6.47;;;;;;;;;;5089810;28;20052;-72
2021/08/08 08:14:41;;;;;;;7.68;5.53;;;;;;;;;;5091237;28;20077;-71
2021/08/08 08:17:07;;;;;;;7.78;4.75;;;;;;;;;;5094021;28;20024;-71
2021/08/08 08:19:32;;;;;;;5.90;5.30;;;;;;;;;;5092653;28;20107;-71
2021/08/08 08:21:58;;;;;;;6.18;5.10;;;;;;;;;;5092599;28;20059;-72
2021/08/08 08:24:23;;;;;;;7.95;5.25;;;;;;;;;;5091475;28;20036;-72
2021/08/08 08:26:49;;;;;;;7.43;5.10;;;;;;;;;;5090786;28;20421;-72
2021/08/08 08:29:15;;;;;;;6.85;4.45;;;;;;;;;;5090671;28;20403;-72
2021/08/08 08:31:40;;;;;;;5.07;4.35;;;;;;;;;;5092554;28;20031;-72
2021/08/08 08:34:06;;;;;;;6.38;4.15;;;;;;;;;;5092389;28;20418;-72
2021/08/08 08:36:32;;;;;;;5.35;4.03;;;;;;;;;;5088686;28;20036;-71
2021/08/08 08:38:57;;;;;;;8.70;4.57;;;;;;;;;;5092066;28;20035;-72
2021/08/08 08:41:27;;;;;;;4.35;3.63;;;;;;;;;;5093285;28;20023;-71
2021/08/08 08:43:54;;;;;;;5.20;3.63;;;;;;;;;;5088154;28;20056;-71
2021/08/08 08:46:21;;;;;;;6.25;3.72;;;;;;;;;;5091503;28;20024;-71
2021/08/08 08:48:49;;;;;;;5.00;3.55;;;;;;;;;;5103354;27;20063;-72
2021/08/08 08:51:16;;;;;;;4.13;3.20;;;;;;;;;;5116227;27;20074;-72
2021/08/08 08:53:46;;;;;;;4.57;3.63;;;;;;;;;;5121700;27;20054;-73
2021/08/08 08:56:13;;;;;;;6.80;3.50;;;;;;;;;;5123999;27;20049;-73
2021/08/08 08:58:39;;;;;;;4.00;3.25;;;;;;;;;;5115985;27;20020;-73
2021/08/08 09:01:05;;;;;;;4.10;3.10;;;;;;;;;;5123998;27;20714;-73
2021/08/08 09:03:30;;;;;;;6.50;2.83;;;;;;;;;;5117119;27;20349;-73
2021/08/08 09:05:57;;;;;;;4.95;3.17;;;;;;;;;;5111579;27;20016;-74
2021/08/08 09:08:23;;;;;;;4.20;3.17;;;;;;;;;;5113533;27;20352;-73
2021/08/08 09:11:14;;;;;;;5.88;3.15;;;;;;;;;;5117133;28;20044;-73
2021/08/08 09:13:48;;;;;;;6.60;3.40;;;;;;;;;;5101749;28;20031;-74
2021/08/08 09:16:14;;;;;;;5.25;3.38;;;;;;;;;;5111373;28;20076;-74
2021/08/08 09:18:48;;;;;;;3.75;3.30;;;;;;;;;;5093517;28;20074;-74
2021/08/08 09:21:14;;;;;;;3.50;2.90;;;;;;;;;;5111096;28;20019;-73
2021/08/08 09:23:39;;;;;;;4.28;2.80;;;;;;;;;;5111774;28;20020;-73
2021/08/08 09:26:05;;;;;;;4.38;2.60;;;;;;;;;;5111596;28;20043;-73
2021/08/08 09:28:31;;;;;;;2.70;2.08;;;;;;;;;;5111517;28;20055;-72
2021/08/08 09:30:58;;;;;;;3.05;2.08;;;;;;;;;;5120738;28;20031;-72
2021/08/08 09:33:24;;;;;;;3.13;2.25;;;;;;;;;;5122140;28;20024;-72
2021/08/08 09:35:52;;;;;;;3.33;2.10;;;;;;;;;;5113065;28;20399;-71
2021/08/08 09:38:18;;;;;;;4.13;2.10;;;;;;;;;;5114442;28;20020;-72
2021/08/08 09:40:59;;;;;;;2.05;1.70;;;;;;;;;;5111384;28;20050;-72
2021/08/08 09:43:26;;;;;;;4.43;2.20;;;;;;;;;;5111783;28;20102;-71
2021/08/08 09:45:51;;;;;;;3.08;1.83;;;;;;;;;;5106473;28;20420;-71
2021/08/08 09:48:17;;;;;;;3.38;1.90;;;;;;;;;;5112744;27;20057;-72
2021/08/08 09:50:44;;;;;;;3.22;2.10;;;;;;;;;;5125817;27;20425;-71
2021/08/08 09:53:16;;;;;;;3.38;1.88;;;;;;;;;;5127943;27;20055;-71
2021/08/08 09:55:42;;;;;;;4.17;2.30;;;;;;;;;;5125657;27;20027;-71
2021/08/08 09:58:10;;;;;;;2.83;2.00;;;;;;;;;;5126853;27;20268;-71
2021/08/08 10:00:38;;;;;;;3.08;2.10;;;;;;;;;;5136643;27;20031;-71
2021/08/08 10:03:05;;;;;;;2.95;2.10;;;;;;;;;;5132345;27;20039;-71
2021/08/08 10:05:36;;;;;;;5.10;2.28;;;;;;;;;;5121150;27;20042;-71
2021/08/08 10:08:10;;;;;;;3.00;2.10;;;;;;;;;;5133740;27;20031;-71
2021/08/08 10:10:38;;;;;;;3.13;2.22;;;;;;;;;;5126417;27;20614;-71
2021/08/08 10:13:56;;;;;;;4.10;2.28;;;;;;;;;;5124410;27;20055;-72
2021/08/08 10:16:22;;;;;;;3.45;2.10;;;;;;;;;;5070896;28;20033;-72
2021/08/08 10:18:54;;;;;;;2.90;2.15;;;;;;;;;;5065109;28;20110;-71
2021/08/08 10:21:20;;;;;;;3.80;2.33;;;;;;;;;;5109969;27;20046;-71
2021/08/08 10:23:48;;;;;;;4.30;2.45;;;;;;;;;;5131055;27;20471;-71
2021/08/08 10:26:14;;;;;;;3.90;2.38;;;;;;;;;;5133864;27;20019;-71
2021/08/08 10:28:40;;;;;;;2.38;1.80;;;;;;;;;;5134723;27;20019;-71
2021/08/08 10:31:06;;;;;;;4.80;2.00;;;;;;;;;;5135264;27;20408;-71
2021/08/08 10:33:48;;;;;;;5.35;2.10;;;;;;;;;;5129347;27;20059;-71
2021/08/08 10:36:22;;;;;;;4.45;2.30;;;;;;;;;;5134164;27;20408;-71
2021/08/08 10:38:48;;;;;;;4.00;2.22;;;;;;;;;;5134681;27;20026;-71
2021/08/08 10:41:14;;;;;;;7.70;2.28;;;;;;;;;;5132557;27;20455;-72
2021/08/08 10:43:44;;;;;;;6.05;2.10;;;;;;;;;;5135301;27;20019;-71
2021/08/08 10:46:10;;;;;;;9.05;2.20;;;;;;;;;;5131185;27;20490;-72
2021/08/08 10:48:38;;;;;;;5.25;2.40;;;;;;;;;;5130044;27;20475;-71
2021/08/08 10:51:24;;;;;;;3.63;2.05;;;;;;;;;;5133883;27;20110;-71
2021/08/08 10:54:08;;;;;;;4.63;2.20;;;;;;;;;;5125747;27;20485;-71
2021/08/08 10:56:44;;;;;;;4.20;2.38;;;;;;;;;;5130972;27;20042;-71
2021/08/08 10:59:13;;;;;;;3.83;1.95;;;;;;;;;;5133212;27;20630;-71
2021/08/08 11:01:39;;;;;;;3.53;1.88;;;;;;;;;;5133235;27;20088;-71
2021/08/08 11:04:07;;;;;;;2.78;1.85;;;;;;;;;;5129782;27;20448;-71
2021/08/08 11:06:35;;;;;;;3.08;1.90;;;;;;;;;;5124154;27;20027;-72
2021/08/08 11:09:03;;;;;;;5.97;1.90;;;;;;;;;;5134240;27;20080;-72
2021/08/08 11:11:31;;;;;;;3.55;2.10;;;;;;;;;;5114581;27;20043;-72
2021/08/08 11:14:17;;;;;;;2.17;1.50;;;;;;;;;;5133274;27;20023;-72
2021/08/08 11:16:44;;;;;;;3.53;1.80;;;;;;;;;;5131317;27;20035;-72
2021/08/08 11:19:11;;;;;;;4.03;1.90;;;;;;;;;;5134424;27;20092;-71
2021/08/08 11:21:37;;;;;;;3.28;1.60;;;;;;;;;;5134640;27;20033;-71
2021/08/08 11:24:05;;;;;;;3.00;1.80;;;;;;;;;;5133741;27;20034;-72
2021/08/08 11:26:31;;;;;;;4.75;1.80;;;;;;;;;;5133743;27;20026;-71
2021/08/08 11:28:59;;;;;;;4.35;2.13;;;;;;;;;;5134205;27;20056;-71
2021/08/08 11:31:30;;;;;;;5.47;1.83;;;;;;;;;;5134234;27;20105;-72
2021/08/08 11:34:07;;;;;;;5.18;2.10;;;;;;;;;;5132822;27;20044;-71
2021/08/08 11:36:41;;;;;;;5.07;2.00;;;;;;;;;;5132475;27;20034;-72
2021/08/08 11:39:09;;;;;;;4.40;1.95;;;;;;;;;;5123456;27;20087;-71
2021/08/08 11:41:35;;;;;;;3.53;2.08;;;;;;;;;;5132774;27;20511;-71
2021/08/08 11:44:20;;;;;;;4.80;1.70;;;;;;;;;;5134378;27;20031;-71
2021/08/08 11:46:55;;;;;;;3.40;2.00;;;;;;;;;;5132198;27;20125;-71
2021/08/08 11:49:23;;;;;;;3.35;1.70;;;;;;;;;;5132795;27;20069;-71
2021/08/08 11:52:01;;;;;;;7.30;1.80;;;;;;;;;;5134382;27;20443;-71
2021/08/08 11:54:29;;;;;;;3.33;1.77;;;;;;;;;;5134058;27;20404;-71
2021/08/08 11:56:56;;;;;;;3.58;2.00;;;;;;;;;;5134124;27;20015;-71
2021/08/08 11:59:29;;;;;;;3.05;1.73;;;;;;;;;;5134196;27;20057;-71
2021/08/08 12:01:57;;;;;;;4.18;1.80;;;;;;;;;;5143769;27;20025;-71
2021/08/08 12:04:23;;;;;;;4.75;1.83;;;;;;;;;;5135989;27;20030;-71
2021/08/08 12:06:49;;;;;;;3.28;1.88;;;;;;;;;;5125824;27;20034;-71
2021/08/08 12:09:14;;;;;;;2.53;1.40;;;;;;;;;;5131219;27;20030;-71
2021/08/08 12:11:52;;;;;;;3.33;1.60;;;;;;;;;;5132108;27;20390;-72
2021/08/08 12:14:34;;;;;;;3.85;1.70;;;;;;;;;;5132135;27;20023;-72
2021/08/08 12:17:12;;;;;;;2.83;1.33;;;;;;;;;;5132730;27;20073;-72
2021/08/08 12:19:39;;;;;;;4.20;1.70;;;;;;;;;;5132778;27;20023;-72
2021/08/08 12:22:12;;;;;;;2.92;1.80;;;;;;;;;;5132039;27;20019;-72
2021/08/08 12:24:42;;;;;;;4.28;1.83;;;;;;;;;;5122389;27;20031;-72
2021/08/08 12:27:10;;;;;;;3.53;1.65;;;;;;;;;;5129026;27;20123;-72
2021/08/08 12:29:37;;;;;;;3.60;1.40;;;;;;;;;;5133042;27;20015;-73
2021/08/08 12:32:15;;;;;;;2.97;1.33;;;;;;;;;;5121657;27;20565;-73
2021/08/08 12:34:42;;;;;;;3.72;1.50;;;;;;;;;;5124133;27;20055;-73
2021/08/08 12:37:10;;;;;;;2.90;1.30;;;;;;;;;;5126962;27;20118;-72
2021/08/08 12:39:38;;;;;;;4.05;1.50;;;;;;;;;;5131758;27;20019;-73
2021/08/08 12:42:19;;;;;;;2.97;1.60;;;;;;;;;;5130699;27;20386;-73
2021/08/08 12:44:45;;;;;;;2.75;1.40;;;;;;;;;;5128294;27;20110;-73
2021/08/08 12:47:20;;;;;;;2.67;1.50;;;;;;;;;;5128009;27;20094;-73
2021/08/08 12:49:47;;;;;;;3.95;1.30;;;;;;;;;;5124485;27;20421;-72
2021/08/08 12:52:12;;;;;;;3.42;1.30;;;;;;;;;;5131707;27;20034;-72
2021/08/08 12:54:38;;;;;;;4.28;1.30;;;;;;;;;;5132496;27;20031;-73
2021/08/08 12:57:03;;;;;;;3.83;1.50;;;;;;;;;;5125623;27;20023;-73
2021/08/08 12:59:29;;;;;;;2.40;1.02;;;;;;;;;;5124504;27;20089;-73
2021/08/08 13:01:58;;;;;;;1.90;1.20;;;;;;;;;;5128152;27;20106;-73
2021/08/08 13:04:23;;;;;;;2.25;1.00;;;;;;;;;;5129997;27;20034;-73
2021/08/08 13:06:49;;;;;;;3.92;1.20;;;;;;;;;;5122353;27;20023;-73
2021/08/08 13:09:14;;;;;;;4.18;1.30;;;;;;;;;;5131472;27;20514;-73
2021/08/08 13:11:40;;;;;;;2.20;1.20;;;;;;;;;;5131424;27;20071;-73
2021/08/08 13:14:06;;;;;;;1.40;1.05;;;;;;;;;;5127223;27;20521;-73
2021/08/08 13:16:34;;;;;;;2.03;1.00;;;;;;;;;;5131150;27;20019;-73
2021/08/08 13:19:00;;;;;;;1.73;0.98;;;;;;;;;;5112124;27;20027;-73
2021/08/08 13:21:25;;;;;;;2.15;1.00;;;;;;;;;;5125831;27;20576;-73
2021/08/08 13:23:51;;;;;;;1.17;1.00;;;;;;;;;;5130835;27;20045;-73
2021/08/08 13:26:16;;;;;;;1.95;1.02;;;;;;;;;;5128636;27;20455;-73
2021/08/08 13:28:45;;;;;;;1.38;0.90;;;;;;;;;;5130273;27;20115;-73
2021/08/08 13:31:10;;;;;;;3.92;1.15;;;;;;;;;;5126458;27;20084;-73
2021/08/08 13:33:36;;;;;;;5.07;1.00;;;;;;;;;;5131712;28;20031;-73
2021/08/08 13:36:01;;;;;;;1.92;1.20;;;;;;;;;;5130823;27;20411;-73
2021/08/08 13:38:27;;;;;;;2.33;1.10;;;;;;;;;;5132525;27;20015;-74
2021/08/08 13:40:52;;;;;;;1.25;1.00;;;;;;;;;;5130370;27;20106;-74
2021/08/08 13:43:18;;;;;;;4.80;1.08;;;;;;;;;;5132066;28;20105;-73
2021/08/08 13:45:44;;;;;;;2.10;0.80;;;;;;;;;;5131970;28;20081;-73
2021/08/08 13:48:10;;;;;;;2.88;0.95;;;;;;;;;;5133812;27;20159;-73
2021/08/08 13:50:36;;;;;;;1.90;1.10;;;;;;;;;;5120540;28;20106;-74
2021/08/08 13:53:01;;;;;;;2.47;1.15;;;;;;;;;;5124959;27;20034;-73
2021/08/08 13:55:27;;;;;;;3.15;1.10;;;;;;;;;;5118202;28;20027;-73
2021/08/08 13:57:53;;;;;;;2.35;1.20;;;;;;;;;;5132053;27;20408;-73
2021/08/08 14:00:19;;;;;;;1.92;1.02;;;;;;;;;;5134556;27;20106;-73
2021/08/08 14:02:46;;;;;;;4.35;1.20;;;;;;;;;;5129257;28;20121;-73
2021/08/08 14:05:15;;;;;;;1.08;0.90;;;;;;;;;;5128629;28;20011;-73
2021/08/08 14:07:40;;;;;;;3.83;1.05;;;;;;;;;;5127871;28;20047;-73
2021/08/08 14:10:09;;;;;;;2.50;1.17;;;;;;;;;;5129500;28;20063;-73
2021/08/08 14:12:35;;;;;;;3.28;0.93;;;;;;;;;;5127902;28;20065;-73
2021/08/08 14:15:00;;;;;;;2.08;1.10;;;;;;;;;;5129375;28;20050;-72
2021/08/08 14:17:26;;;;;;;2.78;1.02;;;;;;;;;;5128882;28;20482;-73
2021/08/08 14:19:51;;;;;;;2.38;1.20;;;;;;;;;;5129612;28;20019;-73
2021/08/08 14:22:17;;;;;;;3.17;1.20;;;;;;;;;;5127469;28;20037;-73
2021/08/08 14:24:43;;;;;;;1.80;1.10;;;;;;;;;;5129301;28;20031;-73
2021/08/08 14:27:09;;;;;;;2.47;0.98;;;;;;;;;;5129225;28;20022;-72
2021/08/08 14:29:34;;;;;;;1.83;0.95;;;;;;;;;;5128392;28;20038;-73
2021/08/08 14:32:00;;;;;;;3.00;1.02;;;;;;;;;;5127574;28;20063;-73
2021/08/08 14:34:25;;;;;;;1.75;1.10;;;;;;;;;;5130400;27;20436;-72